Time;durP1;ratioP1;P1;durP2;ratioP2;P2;SDS_P1;SDS_P2;PMS_P1;PMS_P2;Temp;Humidity;BMP_temperature;BMP_pressure;BME280_temperature;BME280_humidity;BME280_pressure;Samples;Min_cycle;Max_cycle;Signal;HPM_P1;HPM_P2
2022/11/22 00:00:18;;;;;;;37.80;29.10;;;3.90;99.90;;;;;;5084822;27;20394;-77
2022/11/22 00:02:44;;;;;;;37.53;29.25;;;3.90;99.90;;;;;;5125470;27;20061;-77
2022/11/22 00:05:11;;;;;;;38.13;28.75;;;3.90;99.90;;;;;;5117642;27;20043;-77
2022/11/22 00:07:37;;;;;;;38.00;29.02;;;3.90;99.90;;;;;;5124380;27;20097;-77
2022/11/22 00:10:07;;;;;;;37.58;30.20;;;3.90;99.90;;;;;;5122777;27;20090;-77
2022/11/22 00:12:33;;;;;;;;;;;3.90;99.90;;;;;;5126248;27;20056;-77
2022/11/22 00:14:59;;;;;;;35.90;28.90;;;3.80;99.90;;;;;;5136540;27;19926;-77
2022/11/22 00:17:25;;;;;;;37.70;29.85;;;3.80;99.90;;;;;;5123227;27;20054;-77
2022/11/22 00:19:51;;;;;;;38.47;30.27;;;3.90;99.90;;;;;;5123215;27;20138;-77
2022/11/22 00:22:17;;;;;;;39.27;29.93;;;3.80;99.90;;;;;;5112918;27;20039;-77
2022/11/22 00:24:46;;;;;;;39.40;29.35;;;3.80;99.90;;;;;;5107252;27;20061;-77
2022/11/22 00:27:12;;;;;;;39.63;29.73;;;3.80;99.90;;;;;;5091175;27;20041;-77
2022/11/22 00:29:38;;;;;;;38.67;29.88;;;3.80;99.90;;;;;;5109883;27;20167;-77
2022/11/22 00:32:04;;;;;;;35.97;28.90;;;3.80;99.90;;;;;;5100798;27;20046;-77
2022/11/22 00:34:29;;;;;;;35.42;29.48;;;3.90;99.90;;;;;;5125474;27;20086;-77
2022/11/22 00:36:55;;;;;;;37.78;30.45;;;3.90;99.90;;;;;;5126512;27;20096;-76
2022/11/22 00:39:21;;;;;;;36.97;29.85;;;3.90;99.90;;;;;;5103774;27;20035;-77
2022/11/22 00:41:47;;;;;;;35.42;29.05;;;3.80;99.90;;;;;;5122991;27;20345;-76
2022/11/22 00:44:12;;;;;;;38.55;30.40;;;3.80;99.90;;;;;;5150671;27;20062;-77
2022/11/22 00:46:41;;;;;;;37.47;30.02;;;3.90;99.90;;;;;;5121210;27;20047;-77
2022/11/22 00:49:07;;;;;;;38.58;29.92;;;3.80;99.90;;;;;;5101473;27;20066;-77
2022/11/22 00:51:36;;;;;;;38.28;29.10;;;3.90;99.90;;;;;;5125634;27;20411;-77
2022/11/22 00:54:01;;;;;;;38.83;30.45;;;3.90;99.90;;;;;;5117224;27;20043;-77
2022/11/22 00:56:27;;;;;;;37.42;30.38;;;3.90;99.90;;;;;;5099828;27;20042;-77
2022/11/22 00:58:53;;;;;;;37.92;29.10;;;3.90;99.90;;;;;;5151357;27;20371;-77
2022/11/22 01:01:19;;;;;;;35.58;29.77;;;3.80;99.90;;;;;;5102894;27;20043;-77
2022/11/22 01:03:45;;;;;;;34.22;28.70;;;3.80;99.90;;;;;;5135841;27;20491;-77
2022/11/22 01:06:11;;;;;;;37.03;29.20;;;3.80;99.90;;;;;;5103095;27;20040;-77
2022/11/22 01:08:36;;;;;;;37.30;29.15;;;3.80;99.90;;;;;;5120849;27;20050;-77
2022/11/22 01:11:02;;;;;;;32.13;27.48;;;3.80;99.90;;;;;;5107499;27;20043;-77
2022/11/22 01:13:31;;;;;;;38.57;29.53;;;3.80;99.90;;;;;;5136353;27;20051;-77
2022/11/22 01:16:06;;;;;;;34.63;28.50;;;3.90;99.90;;;;;;5137457;27;20039;-77
2022/11/22 01:18:32;;;;;;;37.90;31.20;;;4.00;99.90;;;;;;5103784;27;20047;-77
2022/11/22 01:20:58;;;;;;;36.85;29.73;;;3.90;99.90;;;;;;5122220;27;20042;-77
2022/11/22 01:23:27;;;;;;;36.83;29.48;;;3.90;99.90;;;;;;5108152;27;20043;-76
2022/11/22 01:25:52;;;;;;;40.87;31.50;;;3.90;99.90;;;;;;5116061;27;20050;-76
2022/11/22 01:28:18;;;;;;;39.33;30.53;;;3.90;99.90;;;;;;5101231;27;20057;-76
2022/11/22 01:30:48;;;;;;;41.78;31.20;;;3.90;99.90;;;;;;5131740;27;20038;-77
2022/11/22 01:33:14;;;;;;;39.10;30.23;;;3.80;99.90;;;;;;5098170;27;20415;-77
2022/11/22 01:35:40;;;;;;;42.03;32.37;;;4.00;99.90;;;;;;5128604;27;20037;-76
2022/11/22 01:38:05;;;;;;;41.70;31.83;;;3.90;99.90;;;;;;5121811;27;20435;-76
2022/11/22 01:40:31;;;;;;;42.43;32.60;;;3.80;99.90;;;;;;5123540;27;20039;-76
2022/11/22 01:42:58;;;;;;;43.03;32.73;;;3.80;99.90;;;;;;5102007;27;20129;-77
2022/11/22 01:45:31;;;;;;;38.83;31.30;;;3.90;99.90;;;;;;5124335;27;20047;-77
2022/11/22 01:47:59;;;;;;;44.45;33.28;;;3.80;99.90;;;;;;5123729;27;20270;-77
2022/11/22 01:50:27;;;;;;;43.33;32.47;;;3.80;99.90;;;;;;5103469;27;20529;-77
2022/11/22 01:52:55;;;;;;;43.63;32.90;;;3.80;99.90;;;;;;5111574;27;20256;-78
2022/11/22 01:55:21;;;;;;;43.25;33.33;;;3.90;99.90;;;;;;5101222;27;20043;-78
2022/11/22 01:57:47;;;;;;;42.47;32.47;;;3.80;99.90;;;;;;5143074;27;20047;-77
2022/11/22 02:00:16;;;;;;;47.53;36.22;;;3.80;99.90;;;;;;5131343;27;20050;-77
2022/11/22 02:02:49;;;;;;;46.65;34.42;;;3.80;99.90;;;;;;5120807;27;20051;-77
2022/11/22 02:05:20;;;;;;;44.90;34.00;;;3.80;99.90;;;;;;5118984;27;20109;-77
2022/11/22 02:08:12;;;;;;;43.80;33.95;;;3.80;99.90;;;;;;5108344;27;20424;-77
2022/11/22 02:10:43;;;;;;;44.22;32.97;;;3.80;99.90;;;;;;5099633;27;20058;-77
2022/11/22 02:13:13;;;;;;;48.55;34.50;;;3.90;99.90;;;;;;5101234;27;20452;-78
2022/11/22 02:15:39;;;;;;;45.10;34.95;;;3.80;99.90;;;;;;5114389;27;20058;-73
2022/11/22 02:18:05;;;;;;;44.80;34.92;;;3.80;99.90;;;;;;5117760;27;20512;-72
2022/11/22 02:20:31;;;;;;;44.38;33.67;;;3.80;99.90;;;;;;5118212;27;20139;-72
2022/11/22 02:23:10;;;;;;;46.22;34.00;;;3.80;99.90;;;;;;5116908;27;20039;-72
2022/11/22 02:25:36;;;;;;;50.75;35.22;;;3.80;99.90;;;;;;5141583;27;20047;-73
2022/11/22 02:28:07;;;;;;;49.65;36.17;;;3.90;99.90;;;;;;5096475;27;20575;-72
2022/11/22 02:30:34;;;;;;;50.13;36.15;;;3.80;99.90;;;;;;5100192;27;20047;-74
2022/11/22 02:33:00;;;;;;;48.10;34.80;;;3.90;99.90;;;;;;5117565;27;20039;-72
2022/11/22 02:35:27;;;;;;;48.03;35.47;;;3.90;99.90;;;;;;5118366;27;20494;-72
2022/11/22 02:38:15;;;;;;;51.15;36.17;;;3.90;99.90;;;;;;5115918;27;20133;-72
2022/11/22 02:40:55;;;;;;;52.50;36.55;;;3.90;99.90;;;;;;5099873;27;20063;-73
2022/11/22 02:43:27;;;;;;;53.90;36.55;;;3.80;99.90;;;;;;5101123;27;20043;-73
2022/11/22 02:45:52;;;;;;;54.60;36.25;;;3.90;99.90;;;;;;5112894;27;20055;-71
2022/11/22 02:48:18;;;;;;;50.58;36.28;;;3.90;99.90;;;;;;5101576;27;20070;-71
2022/11/22 02:50:45;;;;;;;57.60;38.72;;;3.90;99.90;;;;;;5099774;27;20142;-71
2022/11/22 02:53:11;;;;;;;47.83;35.22;;;4.00;99.90;;;;;;5102257;27;20047;-72
2022/11/22 02:55:38;;;;;;;53.30;37.10;;;3.90;99.90;;;;;;5115451;27;20461;-72
2022/11/22 02:58:07;;;;;;;52.13;36.45;;;4.00;99.90;;;;;;5119643;27;20086;-72
2022/11/22 03:00:34;;;;;;;50.50;36.65;;;4.00;99.90;;;;;;5114407;27;20123;-71
2022/11/22 03:03:00;;;;;;;46.65;35.08;;;4.00;99.90;;;;;;5103162;27;20043;-77
2022/11/22 03:05:26;;;;;;;49.67;35.45;;;4.00;99.90;;;;;;5110427;27;20039;-77
2022/11/22 03:07:52;;;;;;;53.28;35.55;;;4.00;99.90;;;;;;5118349;27;20039;-77
2022/11/22 03:10:17;;;;;;;50.88;36.25;;;4.00;99.90;;;;;;5100712;27;20042;-76
2022/11/22 03:12:43;;;;;;;49.40;34.63;;;4.00;99.90;;;;;;5082127;27;20044;-76
2022/11/22 03:15:09;;;;;;;47.78;36.05;;;4.10;99.90;;;;;;5098763;27;20040;-77
2022/11/22 03:17:35;;;;;;;54.40;36.45;;;4.00;99.90;;;;;;5122608;27;20039;-77
2022/11/22 03:20:01;;;;;;;50.13;36.38;;;4.10;99.90;;;;;;5098736;27;20540;-77
2022/11/22 03:22:26;;;;;;;47.92;35.00;;;4.10;99.90;;;;;;5098545;27;20180;-77
2022/11/22 03:24:52;;;;;;;48.85;35.50;;;4.10;99.90;;;;;;5113095;27;20066;-76
2022/11/22 03:27:18;;;;;;;51.97;36.78;;;4.20;99.90;;;;;;5098219;27;20569;-77
2022/11/22 03:29:44;;;;;;;43.55;34.83;;;4.20;99.90;;;;;;5103574;27;20070;-76
2022/11/22 03:32:09;;;;;;;53.00;36.67;;;4.20;99.90;;;;;;5072507;27;20065;-77
2022/11/22 03:34:35;;;;;;;47.33;34.30;;;4.10;99.90;;;;;;5096165;27;20036;-76
2022/11/22 03:37:01;;;;;;;49.15;35.35;;;4.30;99.90;;;;;;5135306;27;20070;-77
2022/11/22 03:39:27;;;;;;;50.20;36.80;;;4.20;99.90;;;;;;5120386;27;20032;-77
2022/11/22 03:41:55;;;;;;;47.60;35.85;;;4.20;99.90;;;;;;5094217;27;20058;-77
2022/11/22 03:44:21;;;;;;;48.50;35.40;;;4.20;99.90;;;;;;5102605;27;20047;-77
2022/11/22 03:46:50;;;;;;;47.08;35.05;;;4.20;99.90;;;;;;5122566;27;20067;-76
2022/11/22 03:49:16;;;;;;;46.25;35.40;;;4.20;99.90;;;;;;5099029;27;20043;-77
2022/11/22 03:51:42;;;;;;;42.67;33.25;;;4.30;99.90;;;;;;5112747;27;20055;-77
2022/11/22 03:54:07;;;;;;;50.78;35.17;;;4.30;99.90;;;;;;5082455;27;20066;-72
2022/11/22 03:56:33;;;;;;;46.95;35.13;;;4.30;99.90;;;;;;5114119;27;20078;-72
2022/11/22 03:58:59;;;;;;;47.00;34.90;;;4.30;99.90;;;;;;5115202;27;20131;-72
2022/11/22 04:01:25;;;;;;;45.85;34.55;;;4.30;99.90;;;;;;5095225;27;20055;-72
2022/11/22 04:03:51;;;;;;;45.17;34.35;;;4.30;99.90;;;;;;5081886;27;20055;-72
2022/11/22 04:06:17;;;;;;;45.15;35.22;;;4.40;99.90;;;;;;5096247;27;20039;-72
2022/11/22 04:08:43;;;;;;;47.35;34.63;;;4.30;99.90;;;;;;5112404;27;20122;-72
2022/11/22 04:11:09;;;;;;;45.08;35.72;;;4.40;99.90;;;;;;5096070;27;20042;-72
2022/11/22 04:16:20;;;;;;;45.70;33.72;;;4.40;99.90;;;;;;5098495;27;20361;-72
2022/11/22 04:18:46;;;;;;;48.58;34.28;;;4.40;99.90;;;;;;5079783;27;20512;-77
2022/11/22 04:26:40;;;;;;;45.05;34.08;;;4.40;99.90;;;;;;5098371;27;20058;-76
2022/11/22 04:29:06;;;;;;;47.53;33.92;;;4.40;99.90;;;;;;5081430;27;20051;-77
2022/11/22 04:34:16;;;;;;;45.25;34.72;;;4.50;99.90;;;;;;5114871;27;20044;-77
2022/11/22 04:36:44;;;;;;;44.75;34.08;;;4.50;99.90;;;;;;5099332;27;20404;-77
2022/11/22 04:39:10;;;;;;;45.50;35.83;;;4.40;99.90;;;;;;5120450;27;20054;-76
2022/11/22 04:41:36;;;;;;;50.83;36.58;;;4.60;99.90;;;;;;5081113;27;20043;-77
2022/11/22 04:46:46;;;;;;;43.33;33.70;;;4.60;99.90;;;;;;5084835;27;20080;-77
2022/11/22 04:49:12;;;;;;;50.20;36.13;;;4.60;99.90;;;;;;5096577;27;20361;-77
2022/11/22 04:54:22;;;;;;;55.72;37.42;;;4.60;99.90;;;;;;5109575;27;20633;-76
2022/11/22 04:56:48;;;;;;;47.22;35.78;;;4.60;99.90;;;;;;5078442;27;20542;-76
2022/11/22 04:59:13;;;;;;;48.88;37.15;;;4.60;99.90;;;;;;5094588;27;20047;-77
2022/11/22 05:01:39;;;;;;;48.15;37.05;;;4.70;99.90;;;;;;5116235;27;20138;-76
2022/11/22 05:04:05;;;;;;;45.22;35.53;;;4.70;99.90;;;;;;5113042;27;20043;-76
2022/11/22 05:06:31;;;;;;;46.22;36.58;;;4.80;99.90;;;;;;5108242;27;20066;-76
2022/11/22 05:08:56;;;;;;;50.50;36.58;;;4.70;99.90;;;;;;5062965;28;20062;-76
2022/11/22 05:11:22;;;;;;;47.08;35.78;;;4.70;99.90;;;;;;5111771;27;20042;-76
2022/11/22 05:13:49;;;;;;;45.03;35.58;;;4.70;99.90;;;;;;5112816;27;20039;-76
2022/11/22 05:16:15;;;;;;;46.30;35.55;;;4.70;99.90;;;;;;5094754;27;20060;-76
2022/11/22 05:18:41;;;;;;;48.65;36.50;;;4.80;99.90;;;;;;5080042;28;20041;-77
2022/11/22 05:21:12;;;;;;;48.20;36.50;;;4.80;99.90;;;;;;5078485;27;20047;-77
2022/11/22 05:23:54;;;;;;;44.03;34.95;;;4.80;99.90;;;;;;5141644;27;20124;-76
2022/11/22 05:26:22;;;;;;;43.65;36.55;;;4.80;99.90;;;;;;5112771;27;20378;-77
2022/11/22 05:28:49;;;;;;;46.13;36.55;;;4.90;99.90;;;;;;5116049;27;20058;-76
2022/11/22 05:31:21;;;;;;;45.50;37.92;;;4.80;99.90;;;;;;5112878;27;20046;-76
2022/11/22 05:33:48;;;;;;;49.55;36.40;;;4.90;99.90;;;;;;5112968;27;20073;-77
2022/11/22 05:36:15;;;;;;;49.22;36.63;;;4.90;99.90;;;;;;5110289;27;21444;-76
2022/11/22 05:38:41;;;;;;;48.50;35.35;;;4.90;99.90;;;;;;5079689;27;20043;-77
2022/11/22 05:41:09;;;;;;;55.70;39.88;;;4.90;99.90;;;;;;5079150;28;20096;-77
2022/11/22 05:43:36;;;;;;;45.40;34.28;;;4.90;99.90;;;;;;5112712;27;20046;-77
2022/11/22 05:46:20;;;;;;;57.65;39.88;;;4.90;99.90;;;;;;5095004;28;20051;-76
2022/11/22 05:48:46;;;;;;;50.25;37.65;;;5.00;99.90;;;;;;5139448;27;20051;-76
2022/11/22 05:51:17;;;;;;;45.35;36.15;;;5.00;99.90;;;;;;5094374;28;20408;-76
2022/11/22 05:53:44;;;;;;;44.45;35.47;;;4.90;99.90;;;;;;5121242;27;20046;-76
2022/11/22 05:56:15;;;;;;;48.25;35.90;;;5.00;99.90;;;;;;5129750;27;20555;-76
2022/11/22 05:58:42;;;;;;;55.58;40.53;;;5.10;99.90;;;;;;5121153;27;20413;-76
2022/11/22 06:01:13;;;;;;;47.28;35.70;;;5.00;99.90;;;;;;5084592;27;20048;-76
2022/11/22 06:03:39;;;;;;;46.55;35.40;;;5.00;99.90;;;;;;5138363;27;20046;-77
2022/11/22 06:06:05;;;;;;;45.65;34.53;;;5.00;99.90;;;;;;5094235;27;20487;-76
2022/11/22 06:08:34;;;;;;;50.63;35.15;;;5.00;99.90;;;;;;5108662;27;20070;-77
2022/11/22 06:11:24;;;;;;;46.58;36.17;;;5.00;99.90;;;;;;5107867;27;20067;-76
2022/11/22 06:13:52;;;;;;;48.70;37.15;;;5.00;99.90;;;;;;5111000;27;20054;-76
2022/11/22 06:16:18;;;;;;;50.67;36.63;;;5.00;99.90;;;;;;5111991;27;20047;-77
2022/11/22 06:18:47;;;;;;;60.90;40.53;;;5.00;99.90;;;;;;5135586;27;20092;-77
2022/11/22 06:21:16;;;;;;;38.63;32.97;;;5.10;99.90;;;;;;5087904;27;20986;-78
2022/11/22 06:23:42;;;;;;;42.40;32.22;;;5.10;99.90;;;;;;5115071;27;20040;-78
2022/11/22 06:26:10;;;;;;;44.60;33.15;;;5.10;99.90;;;;;;5078060;27;20050;-78
2022/11/22 06:28:37;;;;;;;46.63;32.50;;;5.10;99.90;;;;;;5096690;27;20035;-81
2022/11/22 06:31:05;;;;;;;40.88;32.00;;;5.10;99.90;;;;;;5092861;27;20050;-80
2022/11/22 06:33:32;;;;;;;39.13;29.70;;;5.10;99.90;;;;;;5111180;27;20081;-81
2022/11/22 06:36:12;;;;;;;38.58;29.42;;;5.10;99.90;;;;;;5096069;27;20686;-82
2022/11/22 06:38:40;;;;;;;40.00;31.70;;;5.20;99.90;;;;;;5120480;27;20704;-81
2022/11/22 06:41:09;;;;;;;48.92;31.90;;;5.20;99.90;;;;;;5113384;27;20354;-81
2022/11/22 06:43:36;;;;;;;37.85;28.90;;;5.20;99.90;;;;;;5114543;27;20122;-81
2022/11/22 06:46:03;;;;;;;41.33;28.63;;;5.30;99.90;;;;;;5109968;27;20068;-81
2022/11/22 06:48:34;;;;;;;37.17;27.48;;;5.30;99.90;;;;;;5113219;27;20092;-82
2022/11/22 06:51:10;;;;;;;;;;;5.30;99.90;;;;;;5093874;27;20055;-82
2022/11/22 06:53:36;;;;;;;46.70;31.73;;;5.30;99.90;;;;;;5095681;27;21068;-82
2022/11/22 06:56:11;;;;;;;39.30;27.58;;;5.30;99.90;;;;;;5093988;27;20277;-81
2022/11/22 06:58:38;;;;;;;48.33;29.25;;;5.20;99.90;;;;;;5096747;27;20062;-79
2022/11/22 07:01:06;;;;;;;44.00;29.23;;;5.20;99.90;;;;;;5140347;27;20051;-79
2022/11/22 07:03:34;;;;;;;36.53;25.90;;;5.30;99.90;;;;;;5140868;27;20423;-80
2022/11/22 07:06:00;;;;;;;38.20;27.08;;;5.20;99.90;;;;;;5113229;27;20165;-80
2022/11/22 07:08:26;;;;;;;44.58;28.38;;;5.20;99.90;;;;;;5099742;27;20051;-80
2022/11/22 07:10:52;;;;;;;36.55;24.90;;;5.20;99.90;;;;;;5078797;27;20523;-80
2022/11/22 07:13:19;;;;;;;37.63;26.00;;;5.20;99.90;;;;;;5114964;27;20058;-80
2022/11/22 07:15:54;;;;;;;36.70;24.83;;;5.30;99.90;;;;;;5118707;27;20043;-80
2022/11/22 07:18:20;;;;;;;44.95;27.40;;;5.20;99.90;;;;;;5114157;27;20122;-80
2022/11/22 07:20:45;;;;;;;39.95;23.52;;;5.20;99.90;;;;;;5097820;27;20062;-80
2022/11/22 07:23:11;;;;;;;35.58;23.60;;;5.30;99.90;;;;;;5087746;27;20162;-80
2022/11/22 07:25:37;;;;;;;32.40;22.65;;;5.20;99.90;;;;;;5099737;27;20062;-81
2022/11/22 07:28:03;;;;;;;33.70;23.35;;;5.20;99.90;;;;;;5113896;27;20470;-81
2022/11/22 07:30:29;;;;;;;33.38;22.20;;;5.20;99.90;;;;;;5089068;27;20073;-81
2022/11/22 07:32:55;;;;;;;33.00;21.35;;;5.20;99.90;;;;;;5083938;27;20055;-81
2022/11/22 07:35:20;;;;;;;32.50;21.58;;;5.20;99.90;;;;;;5087308;27;20043;-81
2022/11/22 07:37:46;;;;;;;31.85;19.65;;;5.20;99.90;;;;;;5132551;27;20513;-81
2022/11/22 07:40:12;;;;;;;32.38;20.33;;;5.20;99.90;;;;;;5087493;27;20053;-81
2022/11/22 07:42:38;;;;;;;32.63;19.58;;;5.10;99.90;;;;;;5109200;27;20065;-81
2022/11/22 07:45:04;;;;;;;32.92;19.25;;;5.10;99.90;;;;;;5078633;27;20055;-81
2022/11/22 07:47:31;;;;;;;33.60;18.08;;;5.10;99.90;;;;;;5098575;27;20062;-81
2022/11/22 07:49:56;;;;;;;33.47;17.73;;;5.10;99.90;;;;;;5098517;27;20549;-81
2022/11/22 07:52:22;;;;;;;28.50;16.50;;;5.10;99.90;;;;;;5098955;27;20055;-81
2022/11/22 07:54:48;;;;;;;29.27;17.50;;;5.10;99.90;;;;;;5099718;27;20043;-81
2022/11/22 07:57:14;;;;;;;27.48;15.32;;;5.10;99.90;;;;;;5117384;27;20508;-82
2022/11/22 07:59:40;;;;;;;27.90;15.82;;;5.10;99.90;;;;;;5121224;27;20047;-81
2022/11/22 08:02:05;;;;;;;31.05;16.50;;;5.10;99.90;;;;;;5115254;27;20061;-81
2022/11/22 08:04:31;;;;;;;27.45;14.70;;;5.10;99.90;;;;;;5114531;27;20524;-82
2022/11/22 08:06:57;;;;;;;27.67;14.55;;;5.00;99.90;;;;;;5098921;27;20040;-81
2022/11/22 08:09:23;;;;;;;27.00;14.15;;;5.00;99.90;;;;;;5094775;27;20074;-81
2022/11/22 08:11:48;;;;;;;25.40;13.45;;;5.00;99.90;;;;;;5124844;27;20576;-81
2022/11/22 08:14:14;;;;;;;23.70;13.85;;;5.00;99.90;;;;;;5124814;27;20123;-82
2022/11/22 08:16:40;;;;;;;26.30;12.05;;;5.10;99.90;;;;;;5118564;27;20039;-81
2022/11/22 08:19:06;;;;;;;26.17;11.88;;;5.00;99.90;;;;;;5098357;27;20044;-81
2022/11/22 08:21:31;;;;;;;27.23;11.52;;;5.00;99.90;;;;;;5116413;27;20069;-82
2022/11/22 08:23:58;;;;;;;22.17;10.82;;;5.00;99.90;;;;;;5099426;27;20426;-81
2022/11/22 08:26:25;;;;;;;22.90;10.73;;;5.00;99.90;;;;;;5112279;27;20504;-81
2022/11/22 08:28:50;;;;;;;22.50;10.18;;;5.00;99.90;;;;;;5116705;27;20111;-82
2022/11/22 08:31:18;;;;;;;25.27;10.73;;;4.90;99.90;;;;;;5102819;27;20043;-81
2022/11/22 08:33:45;;;;;;;29.15;11.13;;;5.00;99.90;;;;;;5098934;27;20493;-82
2022/11/22 08:36:10;;;;;;;19.35;9.25;;;5.00;99.90;;;;;;5105692;27;20047;-81
2022/11/22 08:38:36;;;;;;;20.92;8.63;;;5.00;99.90;;;;;;5093418;27;20640;-82
2022/11/22 08:41:05;;;;;;;22.98;9.40;;;5.00;99.90;;;;;;5093822;27;20051;-81
2022/11/22 08:43:31;;;;;;;20.80;9.30;;;5.10;99.90;;;;;;5122673;27;20486;-81
2022/11/22 08:45:58;;;;;;;24.70;8.25;;;5.10;99.90;;;;;;5123362;27;20054;-81
2022/11/22 08:48:26;;;;;;;22.95;8.38;;;5.10;99.90;;;;;;5117898;27;20047;-81
2022/11/22 08:51:00;;;;;;;20.95;8.05;;;5.20;99.90;;;;;;5109734;27;20053;-81
2022/11/22 08:53:26;;;;;;;16.35;7.03;;;5.20;99.90;;;;;;5095456;27;20403;-81
2022/11/22 08:55:53;;;;;;;19.02;6.60;;;5.30;99.90;;;;;;5120752;27;20104;-81
2022/11/22 08:58:19;;;;;;;17.30;5.68;;;5.30;99.90;;;;;;5120607;27;20157;-81
2022/11/22 09:00:45;;;;;;;15.48;5.95;;;5.30;99.90;;;;;;5116773;27;20150;-82
2022/11/22 09:03:11;;;;;;;18.83;6.00;;;5.40;99.90;;;;;;5120914;27;20099;-81
2022/11/22 09:05:36;;;;;;;24.88;6.68;;;5.40;99.90;;;;;;5139852;27;20047;-82
2022/11/22 09:08:02;;;;;;;18.65;5.82;;;5.50;99.90;;;;;;5106880;27;20043;-75
2022/11/22 09:10:31;;;;;;;20.33;5.38;;;5.60;99.90;;;;;;5118155;27;20035;-75
2022/11/22 09:12:57;;;;;;;18.42;5.18;;;5.70;99.90;;;;;;5102139;27;20063;-75
2022/11/22 09:15:23;;;;;;;14.25;4.72;;;5.70;99.90;;;;;;5120418;27;20076;-74
2022/11/22 09:17:50;;;;;;;15.13;4.68;;;5.80;99.90;;;;;;5119263;27;20615;-74
2022/11/22 09:20:16;;;;;;;18.80;5.90;;;5.80;99.90;;;;;;5119451;27;20058;-74
2022/11/22 09:22:42;;;;;;;19.30;5.38;;;5.80;99.90;;;;;;5112314;27;20071;-75
2022/11/22 09:25:08;;;;;;;14.40;4.63;;;5.90;99.90;;;;;;5097574;27;20109;-74
2022/11/22 09:27:34;;;;;;;14.13;5.00;;;5.90;99.90;;;;;;5128888;27;20039;-74
2022/11/22 09:30:00;;;;;;;14.60;4.93;;;5.90;99.90;;;;;;5117292;27;20054;-74
2022/11/22 09:32:26;;;;;;;15.18;4.82;;;5.90;99.90;;;;;;5109238;27;20074;-74
2022/11/22 09:34:52;;;;;;;19.83;5.03;;;6.00;99.90;;;;;;5102070;27;20043;-74
2022/11/22 09:37:18;;;;;;;18.42;5.53;;;6.00;99.90;;;;;;5100688;27;20790;-73
2022/11/22 09:39:47;;;;;;;13.40;4.57;;;5.90;99.90;;;;;;5115009;27;20101;-73
2022/11/22 09:42:19;;;;;;;15.20;4.78;;;6.10;99.90;;;;;;5082807;27;20529;-74
2022/11/22 09:44:57;;;;;;;16.15;4.68;;;6.10;99.90;;;;;;5112979;27;20438;-81
2022/11/22 09:47:49;;;;;;;14.45;5.43;;;6.10;99.90;;;;;;5110523;27;20055;-74
2022/11/22 09:50:58;;;;;;;17.42;4.15;;;6.10;99.90;;;;;;5112693;27;20135;-74
2022/11/22 09:53:34;;;;;;;12.95;4.38;;;6.10;99.90;;;;;;5073183;27;20047;-73
2022/11/22 09:56:03;;;;;;;14.07;4.75;;;6.20;99.90;;;;;;5113210;27;20050;-73
2022/11/22 09:58:41;;;;;;;15.27;5.23;;;6.10;99.90;;;;;;5123883;27;20139;-73
2022/11/22 10:01:38;;;;;;;12.80;4.47;;;6.20;99.90;;;;;;5124476;27;20054;-73
2022/11/22 10:04:18;;;;;;;11.25;4.47;;;6.20;99.90;;;;;;5118886;27;20047;-73
2022/11/22 10:06:53;;;;;;;;;;;6.20;99.90;;;;;;5123005;27;20132;-73
2022/11/22 10:09:51;;;;;;;15.45;4.25;;;6.20;99.90;;;;;;5126656;27;19927;-74
2022/11/22 10:12:44;;;;;;;13.50;4.60;;;6.20;99.90;;;;;;5119801;27;20127;-74
2022/11/22 10:15:23;;;;;;;13.25;4.43;;;6.40;99.90;;;;;;5122186;27;20054;-74
2022/11/22 10:17:55;;;;;;;11.38;4.20;;;6.30;99.90;;;;;;5129791;27;20660;-74
2022/11/22 10:20:27;;;;;;;15.00;4.80;;;6.30;99.90;;;;;;5114246;27;20126;-74
2022/11/22 10:22:54;;;;;;;14.38;3.88;;;6.30;99.90;;;;;;5121617;27;20031;-75
2022/11/22 10:25:38;;;;;;;13.07;4.72;;;6.40;99.90;;;;;;5123526;27;20118;-73
2022/11/22 10:28:17;;;;;;;10.02;3.72;;;6.40;99.90;;;;;;5121005;27;20055;-73
2022/11/22 10:31:12;;;;;;;11.95;3.50;;;6.50;99.90;;;;;;5112304;27;20054;-73
2022/11/22 10:34:01;;;;;;;10.60;3.53;;;6.50;99.90;;;;;;5105871;27;20138;-74
2022/11/22 10:36:56;;;;;;;13.05;3.63;;;6.50;99.90;;;;;;5153064;27;20050;-74
2022/11/22 10:39:41;;;;;;;10.50;3.80;;;6.60;99.90;;;;;;5099153;27;20417;-74
2022/11/22 10:42:31;;;;;;;13.30;3.55;;;6.60;99.90;;;;;;5137982;27;20402;-73
2022/11/22 10:45:26;;;;;;;13.88;4.00;;;6.60;99.90;;;;;;5114985;27;20172;-73
2022/11/22 10:48:06;;;;;;;13.68;3.88;;;6.70;99.90;;;;;;5128551;27;20047;-74
2022/11/22 10:50:50;;;;;;;12.43;3.55;;;6.70;99.90;;;;;;5110905;27;20047;-74
2022/11/22 10:54:01;;;;;;;10.43;3.70;;;6.80;99.90;;;;;;5122042;27;21274;-74
2022/11/22 10:56:45;;;;;;;13.27;3.50;;;6.80;99.90;;;;;;5041153;28;20044;-74
2022/11/22 10:59:30;;;;;;;10.82;3.85;;;6.90;99.90;;;;;;5033455;28;20650;-74
2022/11/22 11:02:20;;;;;;;12.20;4.15;;;6.90;99.90;;;;;;5101305;27;20421;-73
2022/11/22 11:04:48;;;;;;;8.77;2.95;;;7.00;99.90;;;;;;5116632;27;20238;-73
2022/11/22 11:07:20;;;;;;;14.13;3.55;;;7.00;99.90;;;;;;5113845;27;20669;-73
2022/11/22 11:09:51;;;;;;;10.18;3.05;;;7.00;99.90;;;;;;5134083;27;20057;-73
2022/11/22 11:12:39;;;;;;;;;;;7.00;99.90;;;;;;5117650;27;20047;-73
2022/11/22 11:15:19;;;;;;;12.05;3.85;;;7.00;99.90;;;;;;5119951;27;19919;-73
2022/11/22 11:17:50;;;;;;;11.25;3.38;;;7.00;99.90;;;;;;5105869;27;20074;-73
2022/11/22 11:20:30;;;;;;;11.38;2.78;;;7.00;99.90;;;;;;5116781;27;20051;-73
2022/11/22 11:22:56;;;;;;;10.48;3.33;;;7.10;99.90;;;;;;5108631;27;20047;-73
2022/11/22 11:25:39;;;;;;;8.48;3.38;;;7.10;99.90;;;;;;5123252;27;20043;-73
2022/11/22 11:28:07;;;;;;;9.38;3.22;;;7.10;99.90;;;;;;5104390;27;20134;-73
2022/11/22 11:30:39;;;;;;;12.50;3.20;;;7.00;99.90;;;;;;5105117;27;20043;-72
2022/11/22 11:33:25;;;;;;;11.50;3.72;;;7.10;99.90;;;;;;5119041;27;20051;-73
2022/11/22 11:36:10;;;;;;;8.02;2.63;;;7.10;99.90;;;;;;5123688;27;20401;-73
2022/11/22 11:38:42;;;;;;;9.95;2.55;;;7.10;99.90;;;;;;5122767;27;20039;-74
2022/11/22 11:41:31;;;;;;;9.40;3.08;;;7.10;99.90;;;;;;5100713;27;20135;-73
2022/11/22 11:44:02;;;;;;;7.78;2.35;;;7.20;99.90;;;;;;5128063;27;20413;-73
2022/11/22 11:46:39;;;;;;;9.05;2.42;;;7.10;99.90;;;;;;5103535;27;20584;-73
2022/11/22 11:49:22;;;;;;;8.68;2.90;;;7.20;99.90;;;;;;5102922;27;20050;-73
2022/11/22 11:52:18;;;;;;;10.93;2.72;;;7.20;99.90;;;;;;5118413;27;20058;-74
2022/11/22 11:54:46;;;;;;;8.98;2.22;;;7.20;99.90;;;;;;5150071;27;20127;-73
2022/11/22 11:57:26;;;;;;;7.25;2.40;;;7.20;99.90;;;;;;5116787;27;20623;-74
2022/11/22 11:59:52;;;;;;;8.95;2.90;;;7.30;99.90;;;;;;5117522;27;20054;-74
2022/11/22 12:02:41;;;;;;;12.70;2.72;;;7.30;99.90;;;;;;5103615;27;20050;-74
2022/11/22 12:05:26;;;;;;;11.93;2.92;;;7.30;99.90;;;;;;5117502;27;20069;-73
2022/11/22 12:07:52;;;;;;;10.95;2.60;;;7.40;99.90;;;;;;5135838;27;20490;-74
2022/11/22 12:10:33;;;;;;;9.02;2.58;;;7.40;99.90;;;;;;5120052;27;20112;-74
2022/11/22 12:13:01;;;;;;;9.65;2.88;;;7.50;99.90;;;;;;5120047;27;20053;-74
2022/11/22 12:15:39;;;;;;;9.70;2.83;;;7.50;99.90;;;;;;5102278;27;20097;-74
2022/11/22 12:18:33;;;;;;;12.95;3.17;;;7.50;99.90;;;;;;5117969;27;20057;-74
2022/11/22 12:20:59;;;;;;;10.43;2.88;;;7.60;99.90;;;;;;5148796;27;20077;-74
2022/11/22 12:23:35;;;;;;;9.27;2.95;;;7.50;99.90;;;;;;5112630;27;20043;-73
2022/11/22 12:26:01;;;;;;;9.38;2.05;;;7.60;99.90;;;;;;5123367;27;20047;-73
2022/11/22 12:28:28;;;;;;;8.35;2.47;;;7.60;99.90;;;;;;5122017;27;20051;-81
2022/11/22 12:31:12;;;;;;;11.05;2.65;;;7.60;99.90;;;;;;5113844;27;20038;-81
2022/11/22 12:33:43;;;;;;;9.65;2.70;;;7.60;99.90;;;;;;5125587;27;20079;-81
2022/11/22 12:36:18;;;;;;;9.00;2.80;;;7.60;99.90;;;;;;5119470;27;20561;-80
2022/11/22 12:38:45;;;;;;;8.57;2.38;;;7.60;99.90;;;;;;5116446;27;20051;-80
2022/11/22 12:41:15;;;;;;;12.35;2.78;;;7.60;99.90;;;;;;5116996;27;20039;-81
2022/11/22 12:43:44;;;;;;;10.13;2.38;;;7.60;99.90;;;;;;5117028;27;20051;-81
2022/11/22 12:46:42;;;;;;;8.30;2.65;;;7.60;99.90;;;;;;5117211;27;20043;-81
2022/11/22 12:49:33;;;;;;;8.80;2.60;;;7.60;99.90;;;;;;5112257;27;20058;-80
2022/11/22 12:52:23;;;;;;;7.68;2.78;;;7.60;99.90;;;;;;5117640;27;20086;-81
2022/11/22 12:55:01;;;;;;;11.02;2.53;;;7.60;99.90;;;;;;5125122;27;20396;-81
2022/11/22 12:57:43;;;;;;;8.77;2.60;;;7.60;99.90;;;;;;5099216;27;20197;-82
2022/11/22 13:00:15;;;;;;;8.98;2.55;;;7.70;99.90;;;;;;5116049;27;20579;-81
2022/11/22 13:02:58;;;;;;;7.03;1.98;;;7.60;99.90;;;;;;5115375;27;20051;-81
2022/11/22 13:05:34;;;;;;;6.40;2.30;;;7.60;99.90;;;;;;5100460;27;20031;-81
2022/11/22 13:08:23;;;;;;;8.70;2.40;;;7.50;99.90;;;;;;5103682;27;20157;-73
2022/11/22 13:10:57;;;;;;;8.40;2.00;;;7.50;99.90;;;;;;5102156;27;20358;-74
2022/11/22 13:13:35;;;;;;;7.75;1.90;;;7.50;99.90;;;;;;5121783;27;20047;-73
2022/11/22 13:16:06;;;;;;;8.30;1.85;;;7.50;99.90;;;;;;5113462;27;20100;-73